Time;durP1;ratioP1;P1;durP2;ratioP2;P2;SDS_P1;SDS_P2;PMS_P1;PMS_P2;Temp;Humidity;BMP_temperature;BMP_pressure;BME280_temperature;BME280_humidity;BME280_pressure;Samples;Min_cycle;Max_cycle;Signal;HPM_P1;HPM_P2
2023/12/30 00:01:23;;;;;;;;;;;;;;;4.69;73.45;99657.44;4370269;32;33517;-88
2023/12/30 00:03:53;;;;;;;;;;;;;;;4.60;73.62;99662.50;4370033;32;34910;-88
2023/12/30 00:06:21;;;;;;;;;;;;;;;4.62;73.66;99665.94;4370489;32;34453;-89
2023/12/30 00:08:52;;;;;;;;;;;;;;;4.69;73.26;99667.72;4375261;32;33080;-88
2023/12/30 00:11:24;;;;;;;;;;;;;;;4.76;73.12;99662.62;4369584;32;33522;-88
2023/12/30 00:13:54;;;;;;;;;;;;;;;4.61;73.54;99660.78;4373006;32;34040;-88
2023/12/30 00:16:24;;;;;;;;;;;;;;;4.77;72.64;99666.94;4368514;32;33084;-88
2023/12/30 00:18:55;;;;;;;;;;;;;;;4.73;73.22;99658.31;4374702;32;34044;-87
2023/12/30 00:21:24;;;;;;;;;;;;;;;4.81;72.76;99658.41;4368344;32;35021;-89
2023/12/30 00:23:52;;;;;;;;;;;;;;;4.81;73.71;99659.28;4364150;32;35139;-89
2023/12/30 00:26:28;;;;;;;;;;;;;;;5.02;73.08;99657.75;4370001;32;33681;-88
2023/12/30 00:29:01;;;;;;;;;;;;;;;4.60;73.90;99662.50;4370134;32;32649;-88
2023/12/30 00:31:30;;;;;;;;;;;;;;;4.77;74.09;99664.38;4375038;32;34867;-89
2023/12/30 00:34:00;;;;;;;;;;;;;;;4.61;74.69;99671.91;4369533;32;34151;-87
2023/12/30 00:36:29;;;;;;;;;;;;;;;4.32;74.82;99666.44;4368920;32;34824;-88
2023/12/30 00:38:58;;;;;;;;;;;;;;;4.51;75.26;99661.53;4369247;32;33666;-88
2023/12/30 00:41:28;;;;;;;;;;;;;;;4.58;74.20;99664.19;4374863;32;33636;-88
2023/12/30 00:43:56;;;;;;;;;;;;;;;4.78;73.38;99666.09;4367475;32;33843;-88
2023/12/30 00:46:33;;;;;;;;;;;;;;;4.69;73.64;99667.72;4368592;32;34538;-87
2023/12/30 00:49:09;;;;;;;;;;;;;;;4.47;74.27;99664.06;4369213;32;33388;-87
2023/12/30 00:51:38;;;;;;;;;;;;;;;4.70;72.78;99669.44;4372068;32;34637;-88
2023/12/30 00:54:06;;;;;;;;;;;;;;;4.45;73.51;99670.03;4376523;32;33929;-88
2023/12/30 00:56:36;;;;;;;;;;;;;;;4.60;73.46;99667.63;4373793;32;34190;-88
2023/12/30 00:59:07;;;;;;;;;;;;;;;4.53;73.29;99670.12;4368714;32;33071;-88
2023/12/30 01:01:37;;;;;;;;;;;;;;;4.53;73.41;99668.41;4372084;32;33516;-88
2023/12/30 01:04:07;;;;;;;;;;;;;;;4.70;72.30;99664.31;4376344;32;35814;-88
2023/12/30 01:06:38;;;;;;;;;;;;;;;4.56;72.62;99671.00;4366440;32;32712;-87
2023/12/30 01:09:13;;;;;;;;;;;;;;;4.61;72.24;99669.34;4372098;32;33790;-88
2023/12/30 01:11:42;;;;;;;;;;;;;;;4.74;71.90;99666.94;4370967;32;34065;-87
2023/12/30 01:14:16;;;;;;;;;;;;;;;4.63;72.25;99674.50;4372726;32;33833;-89
2023/12/30 01:16:46;;;;;;;;;;;;;;;4.32;73.97;99674.16;4376392;32;34410;-87
2023/12/30 01:19:15;;;;;;;;;;;;;;;4.67;73.21;99674.56;4370945;32;34105;-87
2023/12/30 01:21:44;;;;;;;;;;;;;;;4.15;74.31;99680.78;4370760;32;33303;-88
2023/12/30 01:24:15;;;;;;;;;;;;;;;4.30;74.40;99674.97;4372204;32;34730;-88
2023/12/30 01:26:44;;;;;;;;;;;;;;;4.46;74.16;99671.75;4369737;32;34706;-88
2023/12/30 01:29:13;;;;;;;;;;;;;;;4.74;73.26;99670.34;4375888;32;33173;-88
2023/12/30 01:31:46;;;;;;;;;;;;;;;4.40;74.51;99670.00;4370847;32;33354;-88
2023/12/30 01:34:17;;;;;;;;;;;;;;;4.34;74.80;99664.75;4370120;32;35036;-88
2023/12/30 01:36:47;;;;;;;;;;;;;;;4.64;74.20;99664.25;4371175;32;34759;-88
2023/12/30 01:39:21;;;;;;;;;;;;;;;4.58;73.87;99666.75;4376097;32;33002;-87
2023/12/30 01:41:51;;;;;;;;;;;;;;;4.76;74.02;99663.53;4370907;32;34710;-88
2023/12/30 01:44:20;;;;;;;;;;;;;;;4.57;74.71;99661.59;4375791;32;33827;-88
2023/12/30 01:46:51;;;;;;;;;;;;;;;4.74;74.36;99664.34;4371032;32;33313;-88
2023/12/30 01:49:20;;;;;;;;;;;;;;;4.78;74.36;99653.22;4371674;32;34093;-88
2023/12/30 01:51:51;;;;;;;;;;;;;;;4.79;73.91;99650.69;4376519;32;34032;-87
2023/12/30 01:54:26;;;;;;;;;;;;;;;4.69;73.94;99651.47;4374048;32;33823;-87
2023/12/30 01:56:54;;;;;;;;;;;;;;;4.69;74.52;99643.75;4363644;32;34360;-88
2023/12/30 01:59:29;;;;;;;;;;;;;;;4.56;74.15;99655.59;4371523;32;32816;-88
2023/12/30 02:01:59;;;;;;;;;;;;;;;4.66;74.28;99651.41;4375645;32;34012;-88
2023/12/30 02:04:28;;;;;;;;;;;;;;;4.56;74.58;99647.88;4374572;32;35353;-88
2023/12/30 02:06:57;;;;;;;;;;;;;;;4.59;74.47;99645.38;4371054;32;34117;-88
2023/12/30 02:09:25;;;;;;;;;;;;;;;4.90;73.11;99646.53;4371001;32;33618;-87
2023/12/30 02:11:57;;;;;;;;;;;;;;;4.87;73.48;99631.03;4371511;32;34383;-87
2023/12/30 02:14:25;;;;;;;;;;;;;;;4.78;74.02;99630.97;4376923;32;34674;-87
2023/12/30 02:17:03;;;;;;;;;;;;;;;4.88;73.77;99637.03;4359156;32;33562;-88
2023/12/30 02:19:33;;;;;;;;;;;;;;;4.45;75.60;99626.38;4356294;32;32837;-88
2023/12/30 02:22:02;;;;;;;;;;;;;;;4.55;75.04;99630.75;4359086;32;33814;-88
2023/12/30 02:24:34;;;;;;;;;;;;;;;4.78;74.12;99630.09;4361866;32;34961;-88
2023/12/30 02:27:03;;;;;;;;;;;;;;;4.43;75.52;99628.91;4361769;32;33573;-88
2023/12/30 02:29:31;;;;;;;;;;;;;;;4.49;75.44;99622.97;4356520;32;34644;-88
2023/12/30 02:32:00;;;;;;;;;;;;;;;4.65;74.20;99630.00;4356911;32;34029;-88
2023/12/30 02:34:29;;;;;;;;;;;;;;;4.46;75.38;99626.38;4360084;32;34934;-88
2023/12/30 02:37:03;;;;;;;;;;;;;;;4.51;74.56;99631.56;4361191;32;33622;-87
2023/12/30 02:39:40;;;;;;;;;;;;;;;4.58;73.91;99628.22;4367309;32;32883;-88
2023/12/30 02:42:09;;;;;;;;;;;;;;;4.51;74.41;99618.72;4371575;32;33300;-88
2023/12/30 02:44:40;;;;;;;;;;;;;;;4.30;74.58;99637.34;4374537;32;33935;-88
2023/12/30 02:47:09;;;;;;;;;;;;;;;4.34;74.58;99621.09;4370545;32;33175;-88
2023/12/30 02:49:41;;;;;;;;;;;;;;;4.38;74.79;99629.72;4376254;32;33728;-88
2023/12/30 02:52:10;;;;;;;;;;;;;;;4.60;73.31;99634.22;4372425;32;33344;-88
2023/12/30 02:54:44;;;;;;;;;;;;;;;4.38;74.47;99628.00;4369944;32;34774;-88
2023/12/30 02:57:14;;;;;;;;;;;;;;;4.55;74.19;99643.59;4370674;32;33797;-88
2023/12/30 02:59:43;;;;;;;;;;;;;;;4.53;73.99;99636.72;4376046;32;33097;-88
2023/12/30 03:02:11;;;;;;;;;;;;;;;4.64;73.58;99630.84;4370324;32;33574;-88
2023/12/30 03:04:41;;;;;;;;;;;;;;;4.61;73.41;99628.22;4371315;32;33917;-88
2023/12/30 03:07:12;;;;;;;;;;;;;;;4.46;74.41;99633.22;4370945;32;34244;-88
2023/12/30 03:09:42;;;;;;;;;;;;;;;4.33;74.48;99631.38;4371109;32;32889;-89
2023/12/30 03:12:15;;;;;;;;;;;;;;;4.38;74.44;99627.16;4376051;32;34088;-88
2023/12/30 03:14:44;;;;;;;;;;;;;;;4.64;73.87;99628.28;4369986;32;33831;-88
2023/12/30 03:17:16;;;;;;;;;;;;;;;4.67;73.85;99628.31;4370670;32;33984;-88
2023/12/30 03:19:49;;;;;;;;;;;;;;;4.66;73.80;99629.16;4370683;32;32818;-87
2023/12/30 03:22:18;;;;;;;;;;;;;;;4.51;74.09;99630.69;4361757;32;34455;-88
2023/12/30 03:24:47;;;;;;;;;;;;;;;3.85;77.09;99635.94;4361448;32;33920;-88
2023/12/30 03:27:17;;;;;;;;;;;;;;;4.34;74.72;99633.09;4362293;32;34349;-88
2023/12/30 03:29:46;;;;;;;;;;;;;;;4.15;75.71;99622.59;4370293;32;33039;-88
2023/12/30 03:32:20;;;;;;;;;;;;;;;4.44;74.47;99637.47;4375443;32;34690;-87
2023/12/30 03:34:49;;;;;;;;;;;;;;;4.24;74.56;99627.84;4365247;32;34276;-88
2023/12/30 03:37:20;;;;;;;;;;;;;;;4.68;73.47;99624.88;4356489;32;33698;-88
2023/12/30 03:39:51;;;;;;;;;;;;;;;4.67;73.33;99627.44;4355071;32;33044;-88
2023/12/30 03:42:22;;;;;;;;;;;;;;;4.54;73.77;99636.72;4358171;32;33613;-88
2023/12/30 03:44:53;;;;;;;;;;;;;;;4.68;72.29;99627.44;4361238;32;33681;-88
2023/12/30 03:47:23;;;;;;;;;;;;;;;4.31;74.12;99620.22;4360004;32;34232;-88
2023/12/30 03:49:51;;;;;;;;;;;;;;;4.67;72.69;99636.00;4355790;32;34029;-88
2023/12/30 03:52:21;;;;;;;;;;;;;;;4.34;73.49;99612.53;4355784;32;34901;-88
2023/12/30 03:54:51;;;;;;;;;;;;;;;4.22;73.70;99629.53;4356697;32;34251;-88
2023/12/30 03:57:29;;;;;;;;;;;;;;;4.38;73.43;99637.44;4374731;32;34708;-87
2023/12/30 04:00:01;;;;;;;;;;;;;;;3.90;75.21;99636.84;4370263;32;33275;-87
2023/12/30 04:02:40;;;;;;;;;;;;;;;3.64;76.35;99629.66;4370255;32;34259;-88
2023/12/30 04:05:09;;;;;;;;;;;;;;;4.40;74.10;99640.88;4370890;32;33982;-87
2023/12/30 04:07:38;;;;;;;;;;;;;;;4.18;74.69;99635.50;4370251;32;34626;-88
2023/12/30 04:10:12;;;;;;;;;;;;;;;3.94;76.45;99627.47;4376023;32;33180;-87
2023/12/30 04:12:47;;;;;;;;;;;;;;;4.41;75.10;99646.00;4371082;32;33380;-87
2023/12/30 04:15:15;;;;;;;;;;;;;;;4.06;76.07;99630.22;4375182;32;35042;-88
2023/12/30 04:17:48;;;;;;;;;;;;;;;3.92;77.33;99630.03;4370504;32;33672;-87
2023/12/30 04:20:16;;;;;;;;;;;;;;;4.30;76.26;99649.31;4375484;32;33118;-88
2023/12/30 04:22:47;;;;;;;;;;;;;;;4.49;75.21;99646.09;4374346;32;34605;-88
2023/12/30 04:25:15;;;;;;;;;;;;;;;4.21;76.70;99634.66;4373276;32;32997;-87
2023/12/30 04:27:53;;;;;;;;;;;;;;;4.38;75.64;99646.00;4370075;32;33666;-88
2023/12/30 04:30:21;;;;;;;;;;;;;;;4.31;75.74;99635.63;4370438;32;33840;-88
2023/12/30 04:32:50;;;;;;;;;;;;;;;4.12;75.59;99637.13;4375509;32;33841;-88
2023/12/30 04:35:19;;;;;;;;;;;;;;;4.35;74.96;99647.62;4358717;32;33457;-88
2023/12/30 04:37:48;;;;;;;;;;;;;;;4.07;74.93;99625.09;4363760;32;33734;-88
2023/12/30 04:40:21;;;;;;;;;;;;;;;4.37;74.56;99646.81;4360699;32;33888;-88
2023/12/30 04:42:56;;;;;;;;;;;;;;;4.51;73.47;99646.97;4373115;32;34365;-88
2023/12/30 04:45:25;;;;;;;;;;;;;;;4.26;74.54;99628.72;4375490;32;33760;-87
2023/12/30 04:47:56;;;;;;;;;;;;;;;4.27;74.56;99652.69;4369759;32;33809;-88
2023/12/30 04:50:25;;;;;;;;;;;;;;;4.36;73.45;99654.53;4370096;32;33365;-87
2023/12/30 04:52:53;;;;;;;;;;;;;;;4.07;75.10;99627.66;4373774;32;34042;-88
2023/12/30 04:55:25;;;;;;;;;;;;;;;4.22;74.32;99656.91;4375675;32;34794;-88
2023/12/30 04:58:04;;;;;;;;;;;;;;;4.18;74.58;99665.41;4356633;32;34256;-88
2023/12/30 05:00:33;;;;;;;;;;;;;;;3.76;76.35;99651.22;4366169;32;33500;-88
2023/12/30 05:03:02;;;;;;;;;;;;;;;4.18;74.85;99663.75;4373563;32;34068;-88
2023/12/30 05:05:31;;;;;;;;;;;;;;;4.24;74.48;99668.06;4370005;32;33785;-88
2023/12/30 05:08:02;;;;;;;;;;;;;;;4.00;75.98;99658.37;4375526;32;34386;-88
2023/12/30 05:10:33;;;;;;;;;;;;;;;4.07;75.61;99673.00;4369303;32;32062;-87
2023/12/30 05:13:05;;;;;;;;;;;;;;;4.16;75.51;99662.84;4369941;32;34116;-88
2023/12/30 05:15:33;;;;;;;;;;;;;;;4.20;75.77;99661.16;4365570;32;33219;-88
2023/12/30 05:18:04;;;;;;;;;;;;;;;4.38;74.77;99663.09;4366424;32;33795;-88
2023/12/30 05:20:34;;;;;;;;;;;;;;;4.41;74.91;99678.53;4369149;32;33923;-88
2023/12/30 05:23:03;;;;;;;;;;;;;;;4.37;74.86;99671.63;4358607;32;33899;-88
2023/12/30 05:25:32;;;;;;;;;;;;;;;4.31;75.43;99657.03;4370172;32;34196;-87
2023/12/30 05:28:04;;;;;;;;;;;;;;;4.55;74.35;99676.13;4369973;32;34706;-88
2023/12/30 05:30:35;;;;;;;;;;;;;;;4.53;74.50;99668.41;4371471;32;34088;-88
2023/12/30 05:33:09;;;;;;;;;;;;;;;4.48;74.99;99678.63;4362162;32;33606;-87
2023/12/30 05:35:39;;;;;;;;;;;;;;;4.50;74.92;99676.09;4368993;32;33431;-88
2023/12/30 05:38:12;;;;;;;;;;;;;;;4.64;74.66;99689.06;4371860;32;34475;-88
2023/12/30 05:40:41;;;;;;;;;;;;;;;4.54;75.26;99685.53;4370891;32;34132;-88
2023/12/30 05:43:09;;;;;;;;;;;;;;;4.44;76.28;99679.44;4376214;32;33967;-88
2023/12/30 05:45:40;;;;;;;;;;;;;;;4.72;75.55;99682.31;4372323;32;33506;-88
2023/12/30 05:48:09;;;;;;;;;;;;;;;4.55;76.20;99682.13;4370867;32;34435;-88
2023/12/30 05:50:38;;;;;;;;;;;;;;;4.58;76.04;99671.03;4371367;32;32727;-88
2023/12/30 05:53:10;;;;;;;;;;;;;;;5.05;75.39;99689.50;4375596;32;34383;-88
2023/12/30 05:55:40;;;;;;;;;;;;;;;4.98;75.57;99685.16;4373699;32;33863;-88
2023/12/30 05:58:15;;;;;;;;;;;;;;;4.87;76.47;99689.31;4370943;32;33746;-88
2023/12/30 06:00:45;;;;;;;;;;;;;;;5.02;75.67;99698.88;4371692;32;33747;-88
2023/12/30 06:03:18;;;;;;;;;;;;;;;4.81;76.64;99691.81;4375097;32;34033;-88
2023/12/30 06:05:46;;;;;;;;;;;;;;;4.82;76.37;99698.69;4375915;32;34240;-88
2023/12/30 06:08:17;;;;;;;;;;;;;;;5.07;75.07;99700.66;4370945;32;33401;-89
2023/12/30 06:10:49;;;;;;;;;;;;;;;5.06;74.70;99705.78;4370123;32;33525;-88
2023/12/30 06:13:19;;;;;;;;;;;;;;;5.12;74.25;99699.00;4366985;32;34339;-88
2023/12/30 06:15:57;;;;;;;;;;;;;;;5.06;74.50;99700.62;4374432;32;34979;-88
2023/12/30 06:18:30;;;;;;;;;;;;;;;5.02;74.18;99702.31;4371190;32;33537;-88
2023/12/30 06:21:00;;;;;;;;;;;;;;;4.60;76.03;99693.31;4371287;32;32955;-88
2023/12/30 06:23:30;;;;;;;;;;;;;;;4.90;75.26;99697.03;4361027;32;33489;-88
2023/12/30 06:26:01;;;;;;;;;;;;;;;4.94;74.53;99708.22;4356627;32;33925;-88
2023/12/30 06:28:31;;;;;;;;;;;;;;;5.01;74.98;99704.88;4361371;32;34462;-88
2023/12/30 06:31:01;;;;;;;;;;;;;;;4.68;76.56;99712.25;4356286;32;32651;-87
2023/12/30 06:33:30;;;;;;;;;;;;;;;4.67;76.79;99709.69;4361675;32;33935;-88
2023/12/30 06:35:59;;;;;;;;;;;;;;;4.95;75.58;99715.94;4371230;32;34052;-88
2023/12/30 06:38:35;;;;;;;;;;;;;;;4.96;75.85;99712.53;4376607;32;34761;-88
2023/12/30 06:41:08;;;;;;;;;;;;;;;4.98;75.76;99718.56;4376277;32;33646;-88
2023/12/30 06:43:36;;;;;;;;;;;;;;;5.01;75.54;99718.59;4373816;32;34131;-88
2023/12/30 06:46:13;;;;;;;;;;;;;;;4.75;76.05;99722.59;4371094;32;33889;-88
2023/12/30 06:48:42;;;;;;;;;;;;;;;4.76;76.31;99721.75;4370389;32;33177;-88
2023/12/30 06:51:11;;;;;;;;;;;;;;;4.99;75.83;99724.56;4376685;32;33526;-88
2023/12/30 06:53:39;;;;;;;;;;;;;;;5.22;74.76;99737.62;4371008;32;33927;-88
2023/12/30 06:56:09;;;;;;;;;;;;;;;5.01;75.61;99743.44;4366475;32;34544;-88
2023/12/30 06:58:41;;;;;;;;;;;;;;;4.99;76.09;99735.69;4370498;32;34783;-88
2023/12/30 07:01:11;;;;;;;;;;;;;;;5.07;75.61;99739.22;4370371;32;33611;-88
2023/12/30 07:03:42;;;;;;;;;;;;;;;5.03;76.14;99745.19;4375640;32;33594;-87
2023/12/30 07:06:16;;;;;;;;;;;;;;;5.18;75.91;99744.47;4364829;32;35054;-88
2023/12/30 07:08:46;;;;;;;;;;;;;;;5.28;75.51;99755.69;4370982;32;33540;-88
2023/12/30 07:11:15;;;;;;;;;;;;;;;5.16;75.81;99753.00;4370625;32;32618;-88
2023/12/30 07:13:44;;;;;;;;;;;;;;;5.34;75.36;99766.91;4376117;32;33762;-88
2023/12/30 07:16:19;;;;;;;;;;;;;;;5.08;76.59;99768.38;4372815;32;33808;-88
2023/12/30 07:18:48;;;;;;;;;;;;;;;5.11;76.08;99774.41;4370818;32;35006;-89
2023/12/30 07:21:17;;;;;;;;;;;;;;;5.37;76.04;99776.38;4371408;32;33361;-88
2023/12/30 07:23:48;;;;;;;;;;;;;;;5.50;75.68;99774.75;4373528;32;34753;-88
2023/12/30 07:26:18;;;;;;;;;;;;;;;5.50;75.65;99773.03;4376388;32;34706;-89
2023/12/30 07:28:47;;;;;;;;;;;;;;;5.49;75.27;99785.91;4370668;32;33863;-88
2023/12/30 07:31:17;;;;;;;;;;;;;;;5.59;74.68;99768.84;4370726;32;33129;-88
2023/12/30 07:33:50;;;;;;;;;;;;;;;5.46;75.29;99771.31;4376629;32;34108;-88
2023/12/30 07:36:19;;;;;;;;;;;;;;;5.60;74.91;99781.69;4376354;32;34474;-89
2023/12/30 07:38:50;;;;;;;;;;;;;;;5.55;75.17;99781.66;4356501;32;35117;-88
2023/12/30 07:41:24;;;;;;;;;;;;;;;5.65;75.15;99786.88;4355421;32;33705;-88
2023/12/30 07:43:53;;;;;;;;;;;;;;;5.50;75.95;99787.63;4358199;32;33551;-88
2023/12/30 07:46:27;;;;;;;;;;;;;;;5.75;75.97;99791.25;4355862;32;33444;-89
2023/12/30 07:48:55;;;;;;;;;;;;;;;5.53;76.77;99780.81;4361281;32;34614;-89
2023/12/30 07:51:27;;;;;;;;;;;;;;;5.82;76.36;99795.59;4360857;32;33094;-88
2023/12/30 07:53:55;;;;;;;;;;;;;;;5.51;77.79;99800.50;4365610;32;33647;-88
2023/12/30 07:56:29;;;;;;;;;;;;;;;5.72;77.72;99798.97;4356441;32;34055;-88
2023/12/30 07:58:58;;;;;;;;;;;;;;;6.08;76.53;99798.41;4362053;32;35028;-88
2023/12/30 08:01:30;;;;;;;;;;;;;;;6.16;76.56;99803.59;4350821;32;784641;-88
2023/12/30 08:03:58;;;;;;;;;;;;;;;6.07;77.01;99795.84;4360331;32;34148;-87
2023/12/30 08:06:33;;;;;;;;;;;;;;;6.40;75.79;99803.78;4369115;32;33752;-88
2023/12/30 08:09:04;;;;;;;;;;;;;;;6.28;76.89;99806.28;4369343;32;33591;-88
2023/12/30 08:11:33;;;;;;;;;;;;;;;6.53;75.79;99811.56;4375219;32;32581;-88
2023/12/30 08:14:23;;;;;;;;;;;;;;;6.50;76.29;99806.38;4372994;32;33558;-88
2023/12/30 08:16:58;;;;;;;;;;;;;;;6.59;76.10;99806.44;4368895;32;34206;-87
2023/12/30 08:19:27;;;;;;;;;;;;;;;6.73;75.77;99809.94;4364603;32;34192;-87
2023/12/30 08:22:00;;;;;;;;;;;;;;;6.54;77.18;99813.28;4371492;32;32750;-87
2023/12/30 08:24:28;;;;;;;;;;;;;;;6.90;75.41;99820.31;4373529;32;34238;-87
2023/12/30 08:26:57;;;;;;;;;;;;;;;6.46;77.99;99822.69;4372384;32;34179;-87
2023/12/30 08:29:28;;;;;;;;;;;;;;;6.75;77.09;99830.56;4366183;32;34753;-87
2023/12/30 08:32:06;;;;;;;;;;;;;;;6.79;77.32;99838.34;4370131;32;32957;-87
2023/12/30 08:34:36;;;;;;;;;;;;;;;6.96;76.42;99834.94;4370490;32;34152;-87
2023/12/30 08:37:11;;;;;;;;;;;;;;;7.03;76.65;99841.84;4363668;32;34894;-87
2023/12/30 08:39:53;;;;;;;;;;;;;;;7.05;76.96;99838.44;4369198;32;33182;-87
2023/12/30 08:42:22;;;;;;;;;;;;;;;7.10;77.03;99833.25;4368532;32;33340;-86
2023/12/30 08:44:54;;;;;;;;;;;;;;;7.13;77.30;99840.16;4370611;32;33084;-86
2023/12/30 08:47:24;;;;;;;;;;;;;;;7.12;77.77;99836.72;4363753;32;34749;-87
2023/12/30 08:49:56;;;;;;;;;;;;;;;7.42;76.45;99835.09;4370095;32;34015;-87
2023/12/30 08:52:30;;;;;;;;;;;;;;;7.53;75.78;99833.37;4369451;32;33313;-86
2023/12/30 08:54:59;;;;;;;;;;;;;;;7.45;76.54;99832.50;4369212;32;33646;-87
2023/12/30 08:57:28;;;;;;;;;;;;;;;7.53;76.30;99838.53;4366577;32;33580;-87
2023/12/30 09:00:00;;;;;;;;;;;;;;;7.53;76.77;99850.59;4360675;32;33076;-87
2023/12/30 09:02:29;;;;;;;;;;;;;;;7.59;77.11;99840.28;4358712;32;32925;-87
2023/12/30 09:05:02;;;;;;;;;;;;;;;7.74;76.32;99844.59;4358210;32;34115;-87
2023/12/30 09:07:35;;;;;;;;;;;;;;;7.77;76.60;99857.50;4362505;32;33799;-87
2023/12/30 09:10:03;;;;;;;;;;;;;;;8.02;75.32;99854.09;4358646;32;33463;-87
2023/12/30 09:12:36;;;;;;;;;;;;;;;7.93;76.03;99863.56;4374173;32;32790;-87
2023/12/30 09:15:06;;;;;;;;;;;;;;;7.79;76.74;99855.78;4375865;32;33560;-86
2023/12/30 09:17:36;;;;;;;;;;;;;;;8.01;76.17;99842.00;4356669;32;34275;-87
2023/12/30 09:20:07;;;;;;;;;;;;;;;8.23;74.40;99845.44;4358200;32;34276;-87
2023/12/30 09:22:40;;;;;;;;;;;;;;;8.06;75.54;99853.19;4373916;32;33764;-87
2023/12/30 09:25:09;;;;;;;;;;;;;;;8.08;75.33;99848.91;4373468;32;33649;-87
2023/12/30 09:27:38;;;;;;;;;;;;;;;8.22;74.38;99848.03;4356657;32;33802;-87
2023/12/30 09:30:08;;;;;;;;;;;;;;;8.23;74.48;99852.34;4356733;32;33491;-87
2023/12/30 09:32:40;;;;;;;;;;;;;;;8.10;74.98;99852.34;4357261;32;32621;-87
2023/12/30 09:35:10;;;;;;;;;;;;;;;8.01;75.39;99846.31;4369720;32;34145;-87
2023/12/30 09:37:39;;;;;;;;;;;;;;;7.91;76.65;99841.16;4371669;32;33702;-87
2023/12/30 09:40:12;;;;;;;;;;;;;;;8.30;74.53;99854.06;4371216;32;34464;-87
2023/12/30 09:42:40;;;;;;;;;;;;;;;8.36;73.78;99845.41;4364905;32;33973;-87
2023/12/30 09:45:10;;;;;;;;;;;;;;;8.15;75.22;99836.84;4356879;32;33565;-87
2023/12/30 09:47:38;;;;;;;;;;;;;;;8.27;74.63;99852.34;4368512;32;34590;-87
2023/12/30 09:50:14;;;;;;;;;;;;;;;8.45;73.47;99858.38;4370668;32;34917;-87
2023/12/30 09:55:16;;;;;;;;;;;;;;;8.41;73.36;99852.34;4373638;32;33549;-87
2023/12/30 09:57:46;;;;;;;;;;;;;;;8.49;72.49;99842.84;4370830;32;33724;-87
2023/12/30 10:00:16;;;;;;;;;;;;;;;8.50;73.01;99847.13;4371180;32;34092;-87
2023/12/30 10:02:46;;;;;;;;;;;;;;;8.48;73.05;99848.91;4372090;32;35473;-87
2023/12/30 10:05:19;;;;;;;;;;;;;;;8.32;74.24;99845.44;4375165;32;34135;-87
2023/12/30 10:07:49;;;;;;;;;;;;;;;8.64;72.39;99841.09;4371298;32;34413;-87
2023/12/30 10:10:43;;;;;;;;;;;;;;;8.39;74.12;99846.28;4375506;32;34873;-87
2023/12/30 10:13:16;;;;;;;;;;;;;;;8.64;73.74;99838.50;4370425;32;34024;-87
2023/12/30 10:15:44;;;;;;;;;;;;;;;8.73;73.91;99835.88;4361912;32;33768;-87
2023/12/30 10:18:15;;;;;;;;;;;;;;;8.91;73.05;99838.38;4360870;32;33919;-87
2023/12/30 10:20:49;;;;;;;;;;;;;;;8.92;72.85;99837.53;4366636;32;33714;-87
2023/12/30 10:23:18;;;;;;;;;;;;;;;8.86;73.86;99829.78;4371509;32;35187;-88
2023/12/30 10:25:47;;;;;;;;;;;;;;;9.11;72.08;99833.16;4372249;32;33980;-87
2023/12/30 10:28:21;;;;;;;;;;;;;;;9.33;70.04;99836.47;4370289;32;33276;-86
2023/12/30 10:30:51;;;;;;;;;;;;;;;9.19;70.74;99831.38;4370204;32;33917;-87
2023/12/30 10:33:19;;;;;;;;;;;;;;;9.48;67.97;99832.94;4362365;32;34889;-87
2023/12/30 10:35:52;;;;;;;;;;;;;;;9.58;67.37;99832.00;4375326;32;35254;-87
2023/12/30 10:38:21;;;;;;;;;;;;;;;9.74;66.35;99818.94;4362653;32;33819;-87
2023/12/30 10:40:51;;;;;;;;;;;;;;;9.90;65.38;99830.03;4369565;32;34237;-87
2023/12/30 10:43:22;;;;;;;;;;;;;;;9.91;64.22;99821.41;4374955;32;33359;-87
2023/12/30 10:45:54;;;;;;;;;;;;;;;9.89;64.04;99813.62;4375351;32;33510;-87
2023/12/30 10:48:29;;;;;;;;;;;;;;;9.81;64.61;99816.28;4371170;32;34511;-87
2023/12/30 10:50:59;;;;;;;;;;;;;;;9.88;66.14;99816.22;4370909;32;33815;-87
2023/12/30 10:53:28;;;;;;;;;;;;;;;10.11;64.71;99811.69;4372228;32;35720;-87
2023/12/30 10:55:58;;;;;;;;;;;;;;;10.01;67.81;99812.66;4371360;32;33931;-87
2023/12/30 10:58:27;;;;;;;;;;;;;;;10.37;63.80;99803.69;4373670;32;33655;-87
2023/12/30 11:00:57;;;;;;;;;;;;;;;10.23;66.06;99809.00;4367983;32;33642;-87
2023/12/30 11:03:32;;;;;;;;;;;;;;;10.28;68.03;99801.19;4369646;32;32609;-87
2023/12/30 11:06:04;;;;;;;;;;;;;;;10.36;68.40;99799.38;4370477;32;34586;-87
2023/12/30 11:08:33;;;;;;;;;;;;;;;10.61;66.27;99799.12;4373267;32;33763;-87
2023/12/30 11:11:05;;;;;;;;;;;;;;;10.56;69.24;99796.59;4361158;32;34628;-87
2023/12/30 11:13:35;;;;;;;;;;;;;;;10.62;69.81;99796.50;4365919;32;33265;-87
2023/12/30 11:16:14;;;;;;;;;;;;;;;10.83;68.40;99804.91;4370361;32;34965;-87
2023/12/30 11:18:46;;;;;;;;;;;;;;;10.86;68.96;99791.88;4361758;32;34517;-87
2023/12/30 11:21:34;;;;;;;;;;;;;;;11.40;61.84;99794.59;4369713;32;34535;-87
2023/12/30 11:24:13;;;;;;;;;;;;;;;11.12;63.82;99801.94;4375514;32;32469;-87
2023/12/30 11:26:53;;;;;;;;;;;;;;;11.40;61.01;99792.00;4370802;32;33555;-87
2023/12/30 11:29:25;;;;;;;;;;;;;;;11.30;61.76;99791.28;4370926;32;34479;-87
2023/12/30 11:31:58;;;;;;;;;;;;;;;11.48;60.15;99782.38;4371493;32;34110;-87
2023/12/30 11:34:29;;;;;;;;;;;;;;;11.51;59.23;99784.91;4369108;32;35625;-87
2023/12/30 11:36:59;;;;;;;;;;;;;;;11.25;61.23;99784.44;4375607;32;33933;-86
2023/12/30 11:39:32;;;;;;;;;;;;;;;11.17;62.49;99781.09;4370472;32;33577;-87
2023/12/30 11:42:02;;;;;;;;;;;;;;;11.44;60.44;99783.28;4368644;32;33900;-87
2023/12/30 11:44:39;;;;;;;;;;;;;;;11.31;61.19;99785.22;4372650;32;33421;-86
2023/12/30 11:47:10;;;;;;;;;;;;;;;11.24;62.49;99774.94;4375117;32;34129;-87
2023/12/30 11:49:40;;;;;;;;;;;;;;;11.38;61.86;99772.13;4367303;32;34699;-87
2023/12/30 11:52:12;;;;;;;;;;;;;;;11.32;62.32;99779.13;4371151;32;33567;-87
2023/12/30 11:54:42;;;;;;;;;;;;;;;11.19;63.73;99777.59;4373284;32;33395;-87
2023/12/30 11:57:14;;;;;;;;;;;;;;;11.18;63.99;99775.88;4367889;32;33782;-87
2023/12/30 11:59:43;;;;;;;;;;;;;;;11.20;63.54;99773.25;4375632;32;33882;-87
2023/12/30 12:02:13;;;;;;;;;;;;;;;11.32;62.83;99767.88;4366885;32;33956;-87
2023/12/30 12:04:42;;;;;;;;;;;;;;;11.20;63.48;99766.31;4371237;32;33170;-87
2023/12/30 12:07:16;;;;;;;;;;;;;;;11.31;62.67;99761.00;4369996;32;33684;-87
2023/12/30 12:09:46;;;;;;;;;;;;;;;11.38;61.38;99760.00;4374418;32;34371;-87
2023/12/30 12:12:21;;;;;;;;;;;;;;;11.30;61.79;99756.66;4367858;32;33886;-86
2023/12/30 12:14:51;;;;;;;;;;;;;;;11.44;61.21;99757.31;4370112;32;33097;-86
2023/12/30 12:17:23;;;;;;;;;;;;;;;11.62;59.87;99765.69;4370642;32;33663;-86
2023/12/30 12:19:52;;;;;;;;;;;;;;;11.52;59.90;99755.47;4367704;32;34394;-86
2023/12/30 12:22:23;;;;;;;;;;;;;;;11.34;60.93;99753.16;4376152;32;34576;-88
2023/12/30 12:24:53;;;;;;;;;;;;;;;11.42;60.89;99746.06;4373177;32;32776;-87
2023/12/30 12:27:28;;;;;;;;;;;;;;;11.42;61.45;99756.47;4369292;32;34392;-87
2023/12/30 12:29:58;;;;;;;;;;;;;;;11.32;61.70;99762.69;4367636;32;33597;-87
2023/12/30 12:32:35;;;;;;;;;;;;;;;11.31;61.75;99755.78;4371539;32;33653;-88
2023/12/30 12:35:07;;;;;;;;;;;;;;;11.39;61.83;99753.06;4374959;32;34014;-87
2023/12/30 12:37:36;;;;;;;;;;;;;;;11.34;62.27;99754.88;4370914;32;34843;-89
2023/12/30 12:40:10;;;;;;;;;;;;;;;11.50;60.83;99756.34;4369191;32;33313;-88
2023/12/30 12:42:39;;;;;;;;;;;;;;;11.29;61.34;99755.81;4369563;32;34313;-89
2023/12/30 12:45:12;;;;;;;;;;;;;;;11.34;61.13;99753.16;4370621;32;33309;-89
2023/12/30 12:47:40;;;;;;;;;;;;;;;11.20;61.86;99749.91;4374368;32;34199;-89
2023/12/30 12:50:10;;;;;;;;;;;;;;;11.42;61.00;99747.81;4370190;32;34189;-89
2023/12/30 12:52:38;;;;;;;;;;;;;;;11.70;59.83;99750.84;4369745;32;33620;-89
2023/12/30 12:55:13;;;;;;;;;;;;;;;11.44;60.54;99749.50;4357613;32;32636;-89
2023/12/30 12:57:43;;;;;;;;;;;;;;;11.42;60.65;99748.69;4371471;32;33687;-89
2023/12/30 13:00:13;;;;;;;;;;;;;;;11.49;60.23;99746.84;4369083;32;33791;-89
2023/12/30 13:02:42;;;;;;;;;;;;;;;11.35;60.94;99747.06;4357651;32;33497;-88
2023/12/30 13:05:17;;;;;;;;;;;;;;;11.53;60.47;99751.13;4371604;32;32716;-88
2023/12/30 13:07:46;;;;;;;;;;;;;;;11.81;58.57;99753.25;4369430;32;33519;-88
2023/12/30 13:10:35;;;;;;;;;;;;;;;12.03;56.95;99751.16;4371860;32;33998;-88
2023/12/30 13:13:06;;;;;;;;;;;;;;;11.75;58.28;99751.63;4369720;32;34440;-89
2023/12/30 13:15:38;;;;;;;;;;;;;;;11.71;58.87;99768.12;4363068;32;33403;-89
2023/12/30 13:18:11;;;;;;;;;;;;;;;12.08;57.60;99755.41;4368923;32;33177;-88